Mwanza, Mwanza Airport (HTMW)

NameMwanza Airport
CityMwanza
CountryUnited Republic of Tanzania
ICAOHTMW
IATAMWZ
Altitude1147 m
CoordinatesGoogle Map
Live Air TrafficLiveATC.net
METARHTMW 151500Z 32009KT 9999 FEW026 FEW027CB 26/19 Q1012 NOSIG
2019-11-15 15:00:00 Wind: Northwest (320°) 4.63 m/s - Visibility: > 10000 m - Temperature: 26 °C - Dew point: 19 °C - Humidity: 65.4% - Pressure: 1012 hPa

Sorry, no flights used the airport in this database.